createdAt,value
2023-04-16T00:02:08.492Z,1.20
2023-04-16T00:04:35.870Z,1.20
2023-04-16T00:07:03.235Z,0.90
2023-04-16T00:09:30.266Z,1.00
2023-04-16T00:11:57.216Z,1.00
2023-04-16T00:14:24.360Z,1.20
2023-04-16T00:16:51.596Z,0.90
2023-04-16T00:19:18.568Z,0.60
2023-04-16T00:21:45.521Z,0.80
2023-04-16T00:24:12.597Z,0.60
2023-04-16T00:26:41.049Z,0.90
2023-04-16T00:29:08.384Z,0.90
2023-04-16T00:31:35.764Z,0.70
2023-04-16T00:34:03.610Z,1.00
2023-04-16T00:36:30.572Z,0.80
2023-04-16T00:38:58.105Z,1.00
2023-04-16T00:41:25.097Z,0.80
2023-04-16T00:43:52.290Z,0.80
2023-04-16T00:46:25.184Z,1.10
2023-04-16T00:48:54.050Z,0.70
2023-04-16T00:51:21.880Z,0.80
2023-04-16T00:53:48.947Z,1.00
2023-04-16T00:56:17.695Z,1.10
2023-04-16T00:58:45.067Z,1.10
2023-04-16T01:01:14.443Z,0.90
2023-04-16T01:03:46.561Z,0.90
2023-04-16T01:06:14.399Z,0.90
2023-04-16T01:08:41.442Z,0.70
2023-04-16T01:11:08.951Z,0.80
2023-04-16T01:13:39.425Z,0.70
2023-04-16T01:16:10.825Z,0.70
2023-04-16T01:18:38.688Z,1.00
2023-04-16T01:21:06.792Z,0.80
2023-04-16T01:23:33.808Z,0.90
2023-04-16T01:26:01.096Z,0.80
2023-04-16T01:28:28.322Z,0.90
2023-04-16T01:30:55.180Z,1.00
2023-04-16T01:33:34.116Z,1.10
2023-04-16T01:36:01.119Z,1.00
2023-04-16T01:38:28.180Z,0.90
2023-04-16T01:40:59.663Z,1.20
2023-04-16T01:43:26.779Z,1.20
2023-04-16T01:46:11.430Z,0.90
2023-04-16T01:48:38.368Z,0.70
2023-04-16T01:51:05.608Z,0.90
2023-04-16T01:53:32.631Z,1.00
2023-04-16T01:55:59.689Z,0.80
2023-04-16T01:58:29.810Z,0.90
2023-04-16T02:00:56.899Z,0.90
2023-04-16T02:03:25.037Z,0.60
2023-04-16T02:05:53.217Z,0.70
2023-04-16T02:08:20.544Z,0.80
2023-04-16T02:10:48.228Z,0.90
2023-04-16T02:13:15.940Z,0.90
2023-04-16T02:15:47.486Z,1.00
2023-04-16T02:18:15.815Z,0.80
2023-04-16T02:20:43.934Z,0.90
2023-04-16T02:23:12.002Z,0.60
2023-04-16T02:25:43.299Z,0.80
2023-04-16T02:28:12.855Z,0.70
2023-04-16T02:30:42.527Z,0.80
2023-04-16T02:33:11.207Z,1.10
2023-04-16T02:35:40.751Z,1.20
2023-04-16T02:38:08.736Z,0.90
2023-04-16T02:40:36.177Z,0.90
2023-04-16T02:43:03.188Z,0.90
2023-04-16T02:45:31.775Z,0.60
2023-04-16T02:47:58.825Z,0.90
2023-04-16T02:50:25.953Z,1.20
2023-04-16T02:52:52.901Z,0.80
2023-04-16T02:55:19.913Z,0.90
2023-04-16T02:57:47.200Z,1.00
2023-04-16T03:00:14.423Z,0.80
2023-04-16T03:02:42.694Z,0.80
2023-04-16T03:05:10.672Z,0.80
2023-04-16T03:07:39.458Z,0.70
2023-04-16T03:10:07.706Z,0.80
2023-04-16T03:12:35.702Z,0.90
2023-04-16T03:15:02.874Z,0.80
2023-04-16T03:17:30.273Z,0.80
2023-04-16T03:19:57.360Z,0.90
2023-04-16T03:22:24.910Z,0.80
2023-04-16T03:24:51.865Z,0.90
2023-04-16T03:27:18.799Z,0.80
2023-04-16T03:29:46.066Z,0.70
2023-04-16T03:32:13.311Z,0.70
2023-04-16T03:34:40.561Z,0.70
2023-04-16T03:37:09.241Z,0.80
2023-04-16T03:39:36.207Z,0.70
2023-04-16T03:42:04.365Z,0.60
2023-04-16T03:44:31.260Z,0.70
2023-04-16T03:46:58.315Z,0.80
2023-04-16T03:49:25.598Z,0.90
2023-04-16T03:51:52.662Z,0.50
2023-04-16T03:54:22.023Z,0.80
2023-04-16T03:56:52.589Z,0.70
2023-04-16T03:59:19.637Z,0.80
2023-04-16T04:01:46.943Z,0.70
2023-04-16T04:04:14.256Z,0.80
2023-04-16T04:06:42.440Z,0.60
2023-04-16T04:09:09.682Z,0.70
2023-04-16T04:11:37.024Z,0.80
2023-04-16T04:14:05.504Z,0.80
2023-04-16T04:16:32.928Z,0.70
2023-04-16T04:19:00.720Z,0.80
2023-04-16T04:21:29.104Z,0.90
2023-04-16T04:23:56.278Z,0.90
2023-04-16T04:26:23.613Z,0.80
2023-04-16T04:28:51.070Z,0.60
2023-04-16T04:31:18.498Z,0.60
2023-04-16T04:33:45.572Z,0.90
2023-04-16T04:36:12.825Z,0.80
2023-04-16T04:38:40.692Z,0.70
2023-04-16T04:41:07.836Z,0.90
2023-04-16T04:43:36.940Z,0.60
2023-04-16T04:46:04.027Z,0.70
2023-04-16T04:48:31.537Z,0.60
2023-04-16T04:50:58.813Z,0.80
2023-04-16T04:53:25.734Z,1.00
2023-04-16T04:55:55.649Z,0.70
2023-04-16T04:58:25.874Z,0.60
2023-04-16T05:00:53.159Z,0.80
2023-04-16T05:03:22.109Z,0.60
2023-04-16T05:05:49.274Z,0.60
2023-04-16T05:08:16.332Z,0.70
2023-04-16T05:10:43.259Z,0.80
2023-04-16T05:13:10.303Z,0.60
2023-04-16T05:15:38.329Z,0.60
2023-04-16T05:18:05.355Z,0.70
2023-04-16T05:20:32.791Z,0.50
2023-04-16T05:22:59.725Z,0.70
2023-04-16T05:25:26.679Z,0.60
2023-04-16T05:27:53.736Z,0.90
2023-04-16T05:30:20.870Z,0.60
2023-04-16T05:32:48.055Z,0.80
2023-04-16T05:35:17.218Z,1.00
2023-04-16T05:37:44.559Z,0.80
2023-04-16T05:40:13.936Z,0.90
2023-04-16T05:42:41.277Z,0.70
2023-04-16T05:45:08.989Z,0.70
2023-04-16T05:47:36.161Z,0.80
2023-04-16T05:50:03.185Z,0.90
2023-04-16T05:52:30.131Z,0.60
2023-04-16T05:54:58.404Z,0.60
2023-04-16T05:57:25.554Z,0.70
2023-04-16T05:59:53.214Z,0.80
2023-04-16T06:02:20.974Z,0.60
2023-04-16T06:04:48.141Z,0.60
2023-04-16T06:07:15.088Z,0.80
2023-04-16T06:09:42.736Z,0.70
2023-04-16T06:12:09.918Z,0.70
2023-04-16T06:14:36.943Z,0.80
2023-04-16T06:17:03.992Z,0.80
2023-04-16T06:19:31.035Z,0.80
2023-04-16T06:21:58.282Z,0.90
2023-04-16T06:24:25.228Z,0.90
2023-04-16T06:26:52.292Z,0.80
2023-04-16T06:29:19.317Z,0.80
2023-04-16T06:31:46.313Z,0.70
2023-04-16T06:34:13.533Z,0.60
2023-04-16T06:36:40.568Z,1.10
2023-04-16T06:39:07.915Z,1.20
2023-04-16T06:41:35.025Z,0.80
2023-04-16T06:44:02.392Z,0.70
2023-04-16T06:46:29.469Z,0.60
2023-04-16T06:48:56.520Z,0.70
2023-04-16T06:51:23.509Z,0.80
2023-04-16T06:53:50.519Z,0.80
2023-04-16T06:56:17.456Z,0.70
2023-04-16T06:58:44.395Z,0.70
2023-04-16T07:01:11.619Z,0.70
2023-04-16T07:03:38.949Z,1.00
2023-04-16T07:06:06.034Z,0.80
2023-04-16T07:08:32.966Z,1.00
2023-04-16T07:11:00.248Z,0.60
2023-04-16T07:13:27.839Z,0.80
2023-04-16T07:15:55.062Z,0.70
2023-04-16T07:18:22.012Z,0.80
2023-04-16T07:20:49.157Z,0.80
2023-04-16T07:23:16.017Z,0.70
2023-04-16T07:25:43.048Z,0.80
2023-04-16T07:28:10.196Z,0.80
2023-04-16T07:30:37.512Z,0.80
2023-04-16T07:33:04.932Z,0.70
2023-04-16T07:35:32.567Z,0.80
2023-04-16T07:37:59.613Z,0.60
2023-04-16T07:40:26.918Z,0.70
2023-04-16T07:42:55.383Z,0.70
2023-04-16T07:45:22.348Z,0.80
2023-04-16T07:47:49.343Z,0.70
2023-04-16T07:50:16.592Z,0.70
2023-04-16T07:52:45.495Z,0.80
2023-04-16T07:55:12.631Z,0.80
2023-04-16T07:57:41.111Z,0.70
2023-04-16T08:00:09.352Z,0.90
2023-04-16T08:02:44.932Z,0.70
2023-04-16T08:05:13.726Z,0.80
2023-04-16T08:07:40.886Z,0.70
2023-04-16T08:10:10.647Z,0.70
2023-04-16T08:12:38.148Z,0.80
2023-04-16T08:15:06.400Z,0.80
2023-04-16T08:17:34.633Z,1.00
2023-04-16T08:20:08.023Z,0.80
2023-04-16T08:22:34.992Z,0.70
2023-04-16T08:25:03.393Z,0.80
2023-04-16T08:27:30.257Z,0.60
2023-04-16T08:29:57.312Z,1.00
2023-04-16T08:32:24.280Z,0.70
2023-04-16T08:34:51.454Z,1.00
2023-04-16T08:37:18.752Z,0.90
2023-04-16T08:39:45.813Z,0.90
2023-04-16T08:42:53.300Z,1.00
2023-04-16T08:45:20.612Z,0.90
2023-04-16T08:47:52.146Z,1.00
2023-04-16T08:50:26.849Z,0.90
2023-04-16T08:52:59.299Z,1.40
2023-04-16T08:55:36.447Z,1.10
2023-04-16T08:58:09.086Z,0.80
2023-04-16T09:00:37.956Z,0.90
2023-04-16T09:03:05.543Z,0.90
2023-04-16T09:05:33.725Z,0.90
2023-04-16T09:08:00.720Z,0.70
2023-04-16T09:10:27.863Z,0.70
2023-04-16T09:12:57.312Z,0.80
2023-04-16T09:15:28.366Z,1.00
2023-04-16T09:17:57.120Z,0.80
2023-04-16T09:20:24.106Z,0.80
2023-04-16T09:22:51.018Z,1.10
2023-04-16T09:25:20.754Z,0.80
2023-04-16T09:27:50.147Z,1.00
2023-04-16T09:30:25.828Z,0.70
2023-04-16T09:33:11.971Z,1.10
2023-04-16T09:35:49.229Z,0.90
2023-04-16T09:38:16.922Z,0.80
2023-04-16T09:40:44.164Z,0.90
2023-04-16T09:43:16.032Z,1.00
2023-04-16T09:45:53.835Z,0.90
2023-04-16T09:48:34.302Z,1.00
2023-04-16T09:51:01.847Z,0.70
2023-04-16T09:53:31.476Z,0.70
2023-04-16T09:56:03.653Z,0.90
2023-04-16T09:58:30.818Z,1.00
2023-04-16T10:01:08.689Z,1.10
2023-04-16T10:03:38.190Z,0.90
2023-04-16T10:06:14.959Z,0.70
2023-04-16T10:09:00.176Z,0.60
2023-04-16T10:11:27.276Z,1.00
2023-04-16T10:13:54.310Z,0.90
2023-04-16T10:16:23.126Z,0.80
2023-04-16T10:18:51.659Z,0.60
2023-04-16T10:21:19.456Z,1.10
2023-04-16T10:23:46.926Z,0.90
2023-04-16T10:26:14.028Z,0.70
2023-04-16T10:28:41.839Z,0.90
2023-04-16T10:31:10.133Z,0.90
2023-04-16T10:33:40.958Z,0.90
2023-04-16T10:36:12.179Z,1.00
2023-04-16T10:38:41.579Z,0.90
2023-04-16T10:41:11.546Z,1.50
2023-04-16T10:43:47.934Z,0.90
2023-04-16T10:46:23.400Z,0.90
2023-04-16T10:48:53.822Z,0.90
2023-04-16T10:51:38.876Z,1.00
2023-04-16T10:54:12.748Z,0.70
2023-04-16T10:56:39.641Z,0.80
2023-04-16T10:59:12.030Z,1.00
2023-04-16T11:01:47.577Z,1.10
2023-04-16T11:04:20.763Z,1.20
2023-04-16T11:07:08.673Z,1.90
2023-04-16T11:09:47.057Z,1.90
2023-04-16T11:12:19.633Z,2.10
2023-04-16T11:14:52.051Z,2.70
2023-04-16T11:17:20.202Z,2.20
2023-04-16T11:19:47.766Z,1.90
2023-04-16T11:22:17.582Z,2.40
2023-04-16T11:24:48.136Z,2.40
2023-04-16T11:27:16.224Z,2.50
2023-04-16T11:29:45.082Z,2.70
2023-04-16T11:32:22.429Z,2.10
2023-04-16T11:34:49.479Z,1.90
2023-04-16T11:37:32.231Z,2.10
2023-04-16T11:39:59.243Z,2.30
2023-04-16T11:42:28.521Z,2.30
2023-04-16T11:44:57.500Z,2.10
2023-04-16T11:47:25.160Z,2.20
2023-04-16T11:49:52.159Z,2.40
2023-04-16T11:52:31.575Z,2.10
2023-04-16T11:54:59.612Z,1.90
2023-04-16T11:57:29.984Z,1.70
2023-04-16T12:00:01.743Z,1.60
2023-04-16T12:02:42.121Z,2.10
2023-04-16T12:05:31.860Z,1.90
2023-04-16T12:08:00.789Z,2.00
2023-04-16T12:10:28.645Z,1.70
2023-04-16T12:13:10.051Z,1.90
2023-04-16T12:15:50.382Z,1.60
2023-04-16T12:18:18.541Z,2.00
2023-04-16T12:20:46.706Z,1.60
2023-04-16T12:23:30.281Z,1.70
2023-04-16T12:26:02.823Z,1.90
2023-04-16T12:28:36.125Z,1.60
2023-04-16T12:31:03.800Z,1.60
2023-04-16T12:33:31.229Z,1.50
2023-04-16T12:35:58.818Z,1.40
2023-04-16T12:38:26.908Z,1.40
2023-04-16T12:40:57.229Z,1.30
2023-04-16T12:43:25.204Z,1.60
2023-04-16T12:45:52.187Z,1.30
2023-04-16T12:48:19.102Z,1.70
2023-04-16T12:50:46.344Z,1.20
2023-04-16T12:53:13.341Z,1.40
2023-04-16T12:55:40.208Z,1.50
2023-04-16T12:58:07.376Z,1.20
2023-04-16T13:00:34.222Z,1.40
2023-04-16T13:03:01.290Z,1.40
2023-04-16T13:05:28.385Z,1.40
2023-04-16T13:07:55.877Z,1.30
2023-04-16T13:10:23.688Z,1.50
2023-04-16T13:12:50.741Z,1.40
2023-04-16T13:15:17.668Z,1.40
2023-04-16T13:17:45.039Z,1.60
2023-04-16T13:20:12.126Z,1.30
2023-04-16T13:22:39.365Z,1.40
2023-04-16T13:25:06.857Z,1.30
2023-04-16T13:27:33.857Z,1.00
2023-04-16T13:30:00.738Z,1.50
2023-04-16T13:32:27.755Z,1.30
2023-04-16T13:34:54.723Z,1.30
2023-04-16T13:37:21.645Z,1.30
2023-04-16T13:39:48.569Z,1.10
2023-04-16T13:42:15.857Z,1.00
2023-04-16T13:44:42.797Z,1.20
2023-04-16T13:47:09.948Z,1.30
2023-04-16T13:49:36.890Z,1.40
2023-04-16T13:52:04.105Z,1.50
2023-04-16T13:54:31.366Z,1.20
2023-04-16T13:56:58.249Z,1.40
2023-04-16T13:59:25.239Z,0.90
2023-04-16T14:01:52.253Z,1.20
2023-04-16T14:04:19.281Z,1.20
2023-04-16T14:06:46.446Z,1.20
2023-04-16T14:09:13.405Z,1.10
2023-04-16T14:11:40.473Z,1.10
2023-04-16T14:14:07.397Z,1.30
2023-04-16T14:16:34.809Z,1.20
2023-04-16T14:19:02.167Z,1.20
2023-04-16T14:21:29.044Z,1.10
2023-04-16T14:23:55.960Z,0.90
2023-04-16T14:26:23.374Z,1.20
2023-04-16T14:28:51.333Z,1.10
2023-04-16T14:31:18.395Z,1.20
2023-04-16T14:33:46.157Z,1.20
2023-04-16T14:36:13.404Z,0.90
2023-04-16T14:38:41.064Z,0.90
2023-04-16T14:41:08.027Z,1.00
2023-04-16T14:43:35.975Z,1.10
2023-04-16T14:46:05.310Z,0.90
2023-04-16T14:48:33.151Z,0.80
2023-04-16T14:51:00.125Z,1.00
2023-04-16T14:53:27.802Z,1.10
2023-04-16T14:55:54.778Z,1.20
2023-04-16T14:58:22.119Z,1.10
2023-04-16T15:00:49.299Z,1.30
2023-04-16T15:03:16.395Z,1.10
2023-04-16T15:05:43.416Z,1.00
2023-04-16T15:08:10.344Z,1.10
2023-04-16T15:10:37.961Z,0.90
2023-04-16T15:13:05.366Z,0.90
2023-04-16T15:15:32.863Z,1.10
2023-04-16T15:18:00.498Z,1.50
2023-04-16T15:20:27.578Z,1.50
2023-04-16T15:22:54.684Z,1.40
2023-04-16T15:25:21.672Z,0.90
2023-04-16T15:27:48.885Z,1.30
2023-04-16T15:30:16.023Z,1.30
2023-04-16T15:32:44.756Z,1.20
2023-04-16T15:35:13.573Z,1.70
2023-04-16T15:37:41.082Z,1.30
2023-04-16T15:40:08.860Z,1.20
2023-04-16T15:42:35.880Z,1.10
2023-04-16T15:45:02.929Z,1.40
2023-04-16T15:47:29.995Z,1.40
2023-04-16T15:49:56.907Z,1.10
2023-04-16T15:52:23.960Z,1.20
2023-04-16T15:54:51.011Z,1.70
2023-04-16T15:57:17.970Z,1.00
2023-04-16T15:59:59.288Z,1.50
2023-04-16T16:02:32.494Z,0.90
2023-04-16T16:05:00.451Z,1.20
2023-04-16T16:07:27.561Z,0.90
2023-04-16T16:09:54.588Z,0.90
2023-04-16T16:12:21.547Z,1.30
2023-04-16T16:14:48.483Z,1.00
2023-04-16T16:17:15.625Z,0.90
2023-04-16T16:19:45.231Z,1.10
2023-04-16T16:22:13.328Z,1.00
2023-04-16T16:24:40.904Z,0.90
2023-04-16T16:27:07.796Z,1.20
2023-04-16T16:29:34.647Z,0.90
2023-04-16T16:32:01.564Z,1.00
2023-04-16T16:34:28.554Z,1.00
2023-04-16T16:36:56.668Z,0.90
2023-04-16T16:39:25.509Z,1.00
2023-04-16T16:41:53.849Z,0.90
2023-04-16T16:44:21.681Z,0.90
2023-04-16T16:46:50.425Z,1.50
2023-04-16T16:49:18.416Z,0.70
2023-04-16T16:51:46.821Z,0.80
2023-04-16T16:54:14.548Z,0.90
2023-04-16T16:56:41.598Z,1.10
2023-04-16T16:59:09.131Z,0.70
2023-04-16T17:01:36.511Z,1.00
2023-04-16T17:04:04.471Z,0.80
2023-04-16T17:06:32.396Z,0.90
2023-04-16T17:08:59.899Z,0.90
2023-04-16T17:11:27.473Z,1.20
2023-04-16T17:13:54.296Z,0.90
2023-04-16T17:16:21.328Z,1.00
2023-04-16T17:18:48.605Z,1.10
2023-04-16T17:21:16.721Z,0.90
2023-04-16T17:23:43.934Z,1.10
2023-04-16T17:26:11.180Z,1.20
2023-04-16T17:28:38.469Z,1.10
2023-04-16T17:31:08.576Z,1.10
2023-04-16T17:33:35.949Z,1.10
2023-04-16T17:36:02.993Z,0.90
2023-04-16T17:38:29.929Z,1.00
2023-04-16T17:40:58.232Z,1.20
2023-04-16T17:43:26.904Z,0.90
2023-04-16T17:45:53.910Z,1.10
2023-04-16T17:48:20.954Z,1.00
2023-04-16T17:50:48.675Z,1.10
2023-04-16T17:53:15.912Z,1.10
2023-04-16T17:55:53.595Z,1.00
2023-04-16T17:58:22.248Z,1.20
2023-04-16T18:00:49.162Z,1.10
2023-04-16T18:03:16.229Z,1.00
2023-04-16T18:05:43.264Z,0.80
2023-04-16T18:08:10.229Z,1.10
2023-04-16T18:10:38.930Z,0.90
2023-04-16T18:13:05.917Z,1.30
2023-04-16T18:15:37.040Z,1.00
2023-04-16T18:18:04.972Z,1.10
2023-04-16T18:20:32.196Z,0.80
2023-04-16T18:22:59.238Z,1.10
2023-04-16T18:25:33.662Z,1.10
2023-04-16T18:28:01.951Z,0.90
2023-04-16T18:30:29.559Z,1.00
2023-04-16T18:33:25.513Z,1.10
2023-04-16T18:35:43.487Z,1.00
2023-04-16T18:38:10.509Z,1.20
2023-04-16T18:40:37.777Z,1.20
2023-04-16T18:43:05.074Z,1.00
2023-04-16T18:45:34.403Z,1.00
2023-04-16T18:48:03.634Z,1.10
2023-04-16T18:50:30.517Z,1.00
2023-04-16T18:52:57.788Z,0.80
2023-04-16T18:55:24.830Z,0.90
2023-04-16T18:57:55.333Z,1.00
2023-04-16T19:00:22.322Z,1.00
2023-04-16T19:02:49.263Z,1.10
2023-04-16T19:05:16.276Z,1.20
2023-04-16T19:07:43.220Z,0.90
2023-04-16T19:10:10.322Z,0.80
2023-04-16T19:12:37.223Z,1.10
2023-04-16T19:15:05.257Z,1.10
2023-04-16T19:17:32.229Z,1.00
2023-04-16T19:19:59.413Z,0.80
2023-04-16T19:22:26.401Z,1.00
2023-04-16T19:24:54.747Z,0.90
2023-04-16T19:27:21.696Z,1.40
2023-04-16T19:29:48.540Z,1.20
2023-04-16T19:32:15.860Z,1.00
2023-04-16T19:34:42.684Z,0.80
2023-04-16T19:37:09.607Z,1.10
2023-04-16T19:39:36.620Z,1.00
2023-04-16T19:42:03.759Z,1.10
2023-04-16T19:44:32.467Z,1.20
2023-04-16T19:46:59.966Z,1.30
2023-04-16T19:49:34.325Z,1.00
2023-04-16T19:52:01.507Z,1.20
2023-04-16T19:54:28.906Z,1.10
2023-04-16T19:56:57.406Z,1.20
2023-04-16T19:59:25.210Z,0.90
2023-04-16T20:01:52.130Z,1.30
2023-04-16T20:04:19.193Z,1.20
2023-04-16T20:06:46.676Z,1.10
2023-04-16T20:09:13.693Z,1.20
2023-04-16T20:11:40.659Z,1.10
2023-04-16T20:14:07.551Z,1.10
2023-04-16T20:16:35.228Z,1.20
2023-04-16T20:19:04.684Z,1.00
2023-04-16T20:21:33.394Z,1.10
2023-04-16T20:24:00.707Z,1.00
2023-04-16T20:26:34.349Z,1.10
2023-04-16T20:29:01.272Z,1.10
2023-04-16T20:31:29.014Z,1.00
2023-04-16T20:33:56.030Z,1.50
2023-04-16T20:36:22.999Z,1.30
2023-04-16T20:38:51.490Z,1.30
2023-04-16T20:41:22.738Z,0.90
2023-04-16T20:43:50.359Z,1.20
2023-04-16T20:46:17.863Z,1.00
2023-04-16T20:48:45.112Z,1.00
2023-04-16T20:51:12.380Z,1.10
2023-04-16T20:53:39.388Z,1.50
2023-04-16T20:56:07.114Z,1.00
2023-04-16T20:58:34.404Z,1.20
2023-04-16T21:01:02.090Z,1.30
2023-04-16T21:03:29.153Z,1.10
2023-04-16T21:05:56.176Z,1.50
2023-04-16T21:08:24.090Z,1.60
2023-04-16T21:10:51.390Z,1.20
2023-04-16T21:13:19.087Z,1.30
2023-04-16T21:15:46.572Z,1.30
2023-04-16T21:18:13.706Z,1.50
2023-04-16T21:20:40.652Z,1.10
2023-04-16T21:23:07.554Z,1.60
2023-04-16T21:25:35.858Z,1.30
2023-04-16T21:28:02.932Z,1.10
2023-04-16T21:30:29.918Z,1.50
2023-04-16T21:32:56.892Z,1.70
2023-04-16T21:35:23.874Z,1.70
2023-04-16T21:37:50.910Z,1.30
2023-04-16T21:40:17.983Z,1.60
2023-04-16T21:42:44.882Z,1.20
2023-04-16T21:45:11.956Z,1.10
2023-04-16T21:47:39.077Z,1.20
2023-04-16T21:50:06.502Z,1.50
2023-04-16T21:52:40.608Z,1.50
2023-04-16T21:55:09.621Z,1.60
2023-04-16T21:57:36.761Z,1.40
2023-04-16T22:00:09.236Z,1.20
2023-04-16T22:02:36.263Z,1.50
2023-04-16T22:05:03.800Z,1.70
2023-04-16T22:07:31.178Z,1.70
2023-04-16T22:09:58.074Z,1.50
2023-04-16T22:12:25.076Z,1.40
2023-04-16T22:15:01.992Z,1.90
2023-04-16T22:17:30.414Z,1.70
2023-04-16T22:20:00.594Z,1.50
2023-04-16T22:22:27.743Z,1.50
2023-04-16T22:24:54.635Z,2.00
2023-04-16T22:27:21.847Z,1.60
2023-04-16T22:29:48.829Z,1.60
2023-04-16T22:32:17.468Z,1.40
2023-04-16T22:34:45.121Z,1.70
2023-04-16T22:37:12.162Z,1.50
2023-04-16T22:39:39.426Z,1.90
2023-04-16T22:42:08.514Z,1.80
2023-04-16T22:44:37.113Z,1.60
2023-04-16T22:47:04.202Z,1.70
2023-04-16T22:49:36.020Z,2.20
2023-04-16T22:52:03.470Z,1.70
2023-04-16T22:54:31.382Z,1.80
2023-04-16T22:56:59.352Z,1.70
2023-04-16T22:59:26.492Z,1.90
2023-04-16T23:01:53.558Z,1.70
2023-04-16T23:04:20.567Z,1.80
2023-04-16T23:06:47.448Z,1.30
2023-04-16T23:09:14.529Z,1.80
2023-04-16T23:11:41.675Z,1.70
2023-04-16T23:14:08.544Z,1.60
2023-04-16T23:16:35.593Z,1.50
2023-04-16T23:19:02.526Z,1.70
2023-04-16T23:21:29.794Z,1.50
2023-04-16T23:23:57.543Z,1.60
2023-04-16T23:26:24.484Z,1.90
2023-04-16T23:28:51.650Z,1.60
2023-04-16T23:31:18.654Z,1.70
2023-04-16T23:33:45.520Z,2.10
2023-04-16T23:36:12.558Z,2.00
2023-04-16T23:38:39.502Z,1.60
2023-04-16T23:41:06.659Z,1.40
2023-04-16T23:43:34.933Z,1.50
2023-04-16T23:46:04.806Z,1.70
2023-04-16T23:48:31.845Z,1.50
2023-04-16T23:50:58.898Z,1.40
2023-04-16T23:53:25.934Z,1.50
2023-04-16T23:55:53.585Z,1.40
2023-04-16T23:58:20.684Z,1.50
